Time;durP1;ratioP1;P1;durP2;ratioP2;P2;SDS_P1;SDS_P2;PMS_P1;PMS_P2;Temp;Humidity;BMP_temperature;BMP_pressure;BME280_temperature;BME280_humidity;BME280_pressure;Samples;Min_cycle;Max_cycle;Signal;HPM_P1;HPM_P2
2021/08/03 00:02:24;;;;;;;0.05;0.05;;;21.90;84.70;;;;;;5060976;28;20020;-91
2021/08/03 00:04:57;;;;;;;0.00;0.00;;;21.90;84.50;;;;;;5037759;28;20033;-91
2021/08/03 00:07:30;;;;;;;0.00;0.00;;;21.90;85.00;;;;;;5037105;28;20041;-91
2021/08/03 00:09:58;;;;;;;0.00;0.00;;;21.90;84.40;;;;;;5037538;28;20029;-91
2021/08/03 00:12:33;;;;;;;0.10;0.10;;;21.90;84.10;;;;;;5037185;28;20021;-91
2021/08/03 00:15:00;;;;;;;0.10;0.10;;;21.90;83.90;;;;;;5037346;28;20497;-91
2021/08/03 00:17:31;;;;;;;0.00;0.00;;;21.90;83.60;;;;;;5050993;28;20029;-91
2021/08/03 00:19:58;;;;;;;0.00;0.00;;;21.90;83.50;;;;;;5037228;28;20485;-91
2021/08/03 00:22:24;;;;;;;0.10;0.10;;;21.90;83.20;;;;;;5037433;28;20025;-91
2021/08/03 00:24:53;;;;;;;0.10;0.10;;;21.90;83.10;;;;;;5058979;28;20047;-91
2021/08/03 00:27:20;;;;;;;0.00;0.00;;;21.90;83.00;;;;;;5054459;28;20033;-91
2021/08/03 00:29:45;;;;;;;0.00;0.00;;;21.90;82.90;;;;;;5037970;28;20024;-91
2021/08/03 00:32:19;;;;;;;0.00;0.00;;;21.90;82.60;;;;;;5037324;28;20521;-92
2021/08/03 00:34:47;;;;;;;0.00;0.00;;;21.90;82.40;;;;;;5037054;28;20021;-91
2021/08/03 00:37:15;;;;;;;0.00;0.00;;;21.90;82.10;;;;;;5037640;28;20036;-91
2021/08/03 00:39:41;;;;;;;0.03;0.03;;;21.80;82.00;;;;;;5036758;28;20517;-91
2021/08/03 00:42:12;;;;;;;0.00;0.00;;;21.80;82.00;;;;;;5036828;28;20029;-91
2021/08/03 00:44:51;;;;;;;0.10;0.10;;;21.80;82.00;;;;;;5054372;28;20528;-91
2021/08/03 00:47:20;;;;;;;0.05;0.05;;;21.80;81.90;;;;;;5036446;28;20490;-91
2021/08/03 00:49:56;;;;;;;0.00;0.00;;;21.80;81.60;;;;;;5036598;28;20386;-92
2021/08/03 00:52:30;;;;;;;0.00;0.00;;;21.70;81.60;;;;;;5036526;28;20041;-90
2021/08/03 00:55:14;;;;;;;0.00;0.00;;;21.70;81.50;;;;;;5036696;28;20028;-91
2021/08/03 00:57:52;;;;;;;0.00;0.00;;;21.70;81.60;;;;;;5039878;28;20052;-91
2021/08/03 01:00:28;;;;;;;0.00;0.00;;;21.60;81.70;;;;;;5061336;28;20025;-91
2021/08/03 01:02:54;;;;;;;0.10;0.10;;;21.60;81.80;;;;;;5045332;28;20033;-91
2021/08/03 01:05:20;;;;;;;0.00;0.00;;;21.50;82.00;;;;;;5036823;28;20074;-92
2021/08/03 01:08:05;;;;;;;0.00;0.00;;;21.50;82.70;;;;;;5036223;28;20045;-91
2021/08/03 01:10:53;;;;;;;0.00;0.00;;;21.50;82.10;;;;;;5036668;28;20029;-91
2021/08/03 01:13:37;;;;;;;0.00;0.00;;;21.50;82.00;;;;;;5036713;28;20521;-90
2021/08/03 01:16:06;;;;;;;0.00;0.00;;;21.50;82.00;;;;;;5036628;28;20021;-91
2021/08/03 01:18:37;;;;;;;0.00;0.00;;;21.50;82.10;;;;;;5037980;28;20041;-91
2021/08/03 01:21:24;;;;;;;0.00;0.00;;;21.50;82.00;;;;;;5039699;28;20032;-91
2021/08/03 01:24:16;;;;;;;0.00;0.00;;;21.50;81.80;;;;;;5061325;28;20037;-91
2021/08/03 01:27:16;;;;;;;0.00;0.00;;;21.50;81.60;;;;;;5054484;28;20079;-91
2021/08/03 01:29:53;;;;;;;0.00;0.00;;;21.50;81.20;;;;;;5040781;28;20049;-92
2021/08/03 01:32:31;;;;;;;0.00;0.00;;;21.50;81.30;;;;;;5040478;28;20384;-91
2021/08/03 01:35:07;;;;;;;0.00;0.00;;;21.50;80.80;;;;;;5040899;28;20041;-90
2021/08/03 01:37:41;;;;;;;0.00;0.00;;;21.50;80.50;;;;;;5040706;28;20486;-92
2021/08/03 01:40:11;;;;;;;;;;;21.50;80.20;;;;;;5041514;28;20029;-92
2021/08/03 01:42:41;;;;;;;0.00;0.00;;;21.50;79.40;;;;;;5040131;28;19984;-91
2021/08/03 01:45:37;;;;;;;;;;;;;;;;;;;;;
2021/08/03 01:48:16;;;;;;;0.00;0.00;;;21.50;78.80;;;;;;5058877;28;20057;-90
2021/08/03 01:50:44;;;;;;;0.00;0.00;;;21.40;78.40;;;;;;5040339;28;20033;-90
2021/08/03 01:53:15;;;;;;;0.05;0.05;;;21.40;78.10;;;;;;5056940;28;20033;-92
2021/08/03 01:55:49;;;;;;;0.00;0.00;;;21.40;78.00;;;;;;5038960;28;20033;-91
2021/08/03 01:58:16;;;;;;;0.00;0.00;;;21.40;78.20;;;;;;5058823;28;20017;-91
2021/08/03 02:00:43;;;;;;;0.10;0.10;;;21.40;78.30;;;;;;5057534;28;20389;-91
2021/08/03 02:03:16;;;;;;;0.10;0.10;;;21.40;78.20;;;;;;5039830;28;20430;-90
2021/08/03 02:05:50;;;;;;;0.05;0.05;;;21.40;78.30;;;;;;5053888;28;20024;-89
2021/08/03 02:08:20;;;;;;;0.10;0.10;;;21.40;78.20;;;;;;5039225;28;20375;-90
2021/08/03 02:11:04;;;;;;;0.00;0.00;;;21.40;78.10;;;;;;5039161;28;20068;-91
2021/08/03 02:13:31;;;;;;;0.00;0.00;;;21.40;78.10;;;;;;5038870;28;20036;-91
2021/08/03 02:16:03;;;;;;;0.10;0.10;;;21.30;78.00;;;;;;5038736;28;20120;-90
2021/08/03 02:18:47;;;;;;;0.00;0.00;;;21.30;78.20;;;;;;5040323;28;20036;-90
2021/08/03 02:21:28;;;;;;;0.00;0.00;;;21.30;78.00;;;;;;5038788;28;20024;-91
2021/08/03 02:23:59;;;;;;;0.00;0.00;;;21.30;78.10;;;;;;5038752;28;20045;-90
2021/08/03 02:26:33;;;;;;;0.10;0.10;;;21.30;78.10;;;;;;5040531;28;20109;-91
2021/08/03 02:29:08;;;;;;;0.10;0.10;;;21.20;78.10;;;;;;5038832;28;20037;-91
2021/08/03 02:31:50;;;;;;;0.00;0.00;;;21.20;78.20;;;;;;5038416;28;20119;-90
2021/08/03 02:34:22;;;;;;;0.10;0.10;;;21.20;78.20;;;;;;5041789;28;20037;-91
2021/08/03 02:36:52;;;;;;;0.00;0.00;;;21.20;78.40;;;;;;5062746;28;20063;-90
2021/08/03 02:39:18;;;;;;;0.00;0.00;;;21.20;78.50;;;;;;5046613;28;20498;-91
2021/08/03 02:41:52;;;;;;;0.00;0.00;;;21.20;78.50;;;;;;5038699;28;20071;-91
2021/08/03 02:44:22;;;;;;;0.00;0.00;;;21.10;78.40;;;;;;5037582;28;20037;-90
2021/08/03 02:47:19;;;;;;;0.00;0.00;;;21.10;78.50;;;;;;5038466;28;20470;-90
2021/08/03 02:52:38;;;;;;;0.00;0.00;;;21.10;78.50;;;;;;5120936;27;20463;-90
2021/08/03 02:55:12;;;;;;;0.00;0.00;;;21.10;78.40;;;;;;5128253;28;20032;-89
2021/08/03 02:57:53;;;;;;;0.10;0.10;;;21.10;78.50;;;;;;5110594;28;20028;-90
2021/08/03 03:00:38;;;;;;;;;;;;;;;;;;;;;
2021/08/03 03:03:11;;;;;;;0.00;0.00;;;21.10;78.70;;;;;;5112109;28;20098;-90
2021/08/03 03:05:40;;;;;;;0.10;0.10;;;21.20;78.90;;;;;;5111165;28;20020;-89
2021/08/03 03:08:08;;;;;;;0.00;0.00;;;21.20;79.20;;;;;;5118777;28;20095;-89
2021/08/03 03:10:41;;;;;;;0.00;0.00;;;21.10;79.60;;;;;;5134537;28;20049;-91
2021/08/03 03:13:34;;;;;;;0.00;0.00;;;21.10;80.10;;;;;;5128155;28;20521;-91
2021/08/03 03:16:10;;;;;;;0.10;0.10;;;21.00;80.60;;;;;;5111393;28;20419;-91
2021/08/03 03:18:39;;;;;;;0.10;0.10;;;20.90;81.80;;;;;;5112040;28;20028;-91
2021/08/03 03:21:08;;;;;;;0.10;0.10;;;20.80;82.30;;;;;;5110508;28;20111;-90
2021/08/03 03:23:42;;;;;;;0.00;0.00;;;20.70;82.80;;;;;;5108953;28;20039;-90
2021/08/03 03:26:31;;;;;;;0.10;0.10;;;20.70;83.60;;;;;;5109412;28;20035;-89
2021/08/03 03:29:05;;;;;;;0.00;0.00;;;20.70;84.50;;;;;;5109730;28;20542;-87
2021/08/03 03:31:38;;;;;;;0.00;0.00;;;20.60;84.80;;;;;;5108768;28;20051;-87
2021/08/03 03:34:06;;;;;;;0.10;0.10;;;20.60;85.20;;;;;;5108719;28;20035;-87
2021/08/03 03:36:34;;;;;;;0.00;0.00;;;20.60;85.60;;;;;;5109129;28;20020;-88
2021/08/03 03:39:02;;;;;;;0.10;0.10;;;20.60;85.80;;;;;;5109213;28;20487;-88
2021/08/03 03:41:29;;;;;;;0.10;0.10;;;20.70;86.50;;;;;;5108571;28;20115;-88
2021/08/03 03:43:55;;;;;;;0.10;0.10;;;20.70;86.90;;;;;;5108376;28;20389;-88
2021/08/03 03:46:28;;;;;;;0.00;0.00;;;20.80;86.70;;;;;;5108816;28;20032;-88
2021/08/03 03:49:14;;;;;;;0.00;0.00;;;20.90;86.20;;;;;;5133633;28;20034;-88
2021/08/03 03:51:42;;;;;;;0.00;0.00;;;21.00;86.10;;;;;;5115603;28;20044;-88
2021/08/03 03:54:12;;;;;;;0.00;0.00;;;21.00;85.90;;;;;;5109555;28;20039;-88
2021/08/03 03:56:47;;;;;;;0.05;0.05;;;21.10;85.70;;;;;;5107565;28;20524;-88
2021/08/03 03:59:17;;;;;;;0.00;0.00;;;21.10;85.80;;;;;;5109025;28;20032;-89
2021/08/03 04:01:43;;;;;;;0.03;0.03;;;21.10;85.80;;;;;;5106556;28;20381;-88
2021/08/03 04:04:11;;;;;;;0.00;0.00;;;21.20;85.70;;;;;;5094675;28;20033;-88
2021/08/03 04:06:37;;;;;;;0.00;0.00;;;21.30;85.60;;;;;;5093889;28;20500;-88
2021/08/03 04:09:03;;;;;;;0.00;0.00;;;21.40;85.20;;;;;;5094193;28;20036;-88
2021/08/03 04:11:29;;;;;;;0.08;0.08;;;21.40;85.00;;;;;;5094029;28;20032;-88
2021/08/03 04:13:56;;;;;;;0.00;0.00;;;21.40;84.90;;;;;;5094223;28;20417;-88
2021/08/03 04:16:21;;;;;;;0.00;0.00;;;21.50;84.50;;;;;;5093899;28;20024;-88
2021/08/03 04:18:47;;;;;;;0.00;0.00;;;21.60;84.00;;;;;;5095543;28;20067;-90
2021/08/03 04:21:13;;;;;;;0.10;0.10;;;21.70;83.60;;;;;;5093824;28;20476;-89
2021/08/03 04:23:39;;;;;;;0.00;0.00;;;21.70;83.50;;;;;;5095817;28;20035;-88
2021/08/03 04:26:05;;;;;;;0.00;0.00;;;21.80;83.20;;;;;;5110633;28;20012;-88
2021/08/03 04:28:32;;;;;;;0.00;0.00;;;21.80;82.70;;;;;;5117423;28;20103;-88
2021/08/03 04:30:59;;;;;;;0.00;0.00;;;21.90;82.70;;;;;;5095465;28;20492;-88
2021/08/03 04:33:26;;;;;;;0.00;0.00;;;22.00;83.00;;;;;;5096596;28;20029;-88
2021/08/03 04:35:52;;;;;;;0.00;0.00;;;22.20;82.70;;;;;;5095958;28;20024;-89
2021/08/03 04:38:17;;;;;;;0.00;0.00;;;22.30;82.30;;;;;;5095676;28;20039;-88
2021/08/03 04:40:43;;;;;;;0.00;0.00;;;22.50;81.90;;;;;;5095157;28;20031;-88
2021/08/03 04:43:09;;;;;;;0.00;0.00;;;22.70;81.60;;;;;;5096058;28;20016;-88
2021/08/03 04:45:34;;;;;;;0.00;0.00;;;23.00;80.80;;;;;;5095898;28;20028;-88
2021/08/03 04:48:00;;;;;;;0.00;0.00;;;23.30;79.60;;;;;;5096900;28;20329;-88
2021/08/03 04:50:28;;;;;;;0.00;0.00;;;23.60;78.70;;;;;;5096637;28;20089;-88
2021/08/03 04:52:55;;;;;;;0.00;0.00;;;23.70;77.70;;;;;;5096706;28;20439;-89
2021/08/03 04:55:21;;;;;;;0.00;0.00;;;23.90;76.60;;;;;;5095864;28;20476;-88
2021/08/03 04:57:47;;;;;;;0.00;0.00;;;23.90;75.70;;;;;;5095582;28;20024;-88
2021/08/03 05:00:14;;;;;;;0.00;0.00;;;23.70;75.60;;;;;;5095762;28;20491;-88
2021/08/03 05:02:41;;;;;;;0.05;0.05;;;23.80;75.80;;;;;;5117942;28;20015;-88
2021/08/03 05:05:08;;;;;;;0.10;0.10;;;23.80;75.00;;;;;;5110076;28;20040;-88
2021/08/03 05:07:35;;;;;;;0.10;0.10;;;23.80;75.00;;;;;;5096144;28;20046;-89
2021/08/03 05:10:05;;;;;;;0.00;0.00;;;23.80;74.80;;;;;;5095182;28;20032;-88
2021/08/03 05:12:32;;;;;;;0.00;0.00;;;23.90;74.60;;;;;;5095044;28;20050;-90
2021/08/03 05:15:00;;;;;;;0.00;0.00;;;23.90;74.40;;;;;;5094640;28;20032;-88
2021/08/03 05:17:31;;;;;;;0.00;0.00;;;23.90;74.00;;;;;;5097164;28;20052;-89
2021/08/03 05:19:57;;;;;;;0.03;0.00;;;24.00;73.60;;;;;;5096555;28;20028;-88
2021/08/03 05:22:24;;;;;;;0.03;0.03;;;24.00;73.60;;;;;;5095595;28;20024;-88
2021/08/03 05:24:50;;;;;;;0.00;0.00;;;24.00;73.30;;;;;;5095150;28;20032;-88
2021/08/03 05:27:16;;;;;;;0.00;0.00;;;23.90;73.00;;;;;;5097488;28;20042;-88
2021/08/03 05:29:41;;;;;;;0.00;0.00;;;23.80;72.90;;;;;;5095828;28;20032;-88
2021/08/03 05:32:07;;;;;;;0.00;0.00;;;23.80;72.80;;;;;;5096427;28;20526;-88
2021/08/03 05:34:33;;;;;;;0.00;0.00;;;23.80;72.30;;;;;;5096456;28;20107;-88
2021/08/03 05:37:04;;;;;;;0.00;0.00;;;23.80;72.10;;;;;;5095156;28;20503;-89
2021/08/03 05:39:30;;;;;;;0.00;0.00;;;23.70;72.20;;;;;;5094733;28;20050;-88
2021/08/03 05:41:57;;;;;;;0.00;0.00;;;23.90;72.30;;;;;;5116712;28;20016;-89
2021/08/03 05:44:23;;;;;;;0.08;0.08;;;24.00;71.70;;;;;;5107854;28;20055;-89
2021/08/03 05:46:48;;;;;;;0.00;0.00;;;24.00;71.30;;;;;;5097456;28;20076;-88
2021/08/03 05:49:14;;;;;;;0.00;0.00;;;24.00;71.10;;;;;;5106902;28;20028;-87
2021/08/03 05:51:40;;;;;;;0.00;0.00;;;24.00;71.20;;;;;;5117679;28;20040;-87
2021/08/03 05:54:06;;;;;;;0.00;0.00;;;24.20;71.60;;;;;;5098077;28;20086;-88
2021/08/03 05:56:32;;;;;;;0.00;0.00;;;24.50;71.50;;;;;;5097172;28;20513;-86
2021/08/03 05:58:58;;;;;;;0.00;0.00;;;25.10;71.80;;;;;;5093185;28;20134;-86
2021/08/03 06:01:23;;;;;;;0.00;0.00;;;26.00;71.20;;;;;;5098418;28;20051;-89
2021/08/03 06:03:49;;;;;;;0.00;0.00;;;26.90;69.50;;;;;;5096669;28;20119;-88
2021/08/03 06:06:16;;;;;;;0.00;0.00;;;27.30;67.30;;;;;;5096421;28;20024;-90
2021/08/03 06:08:46;;;;;;;0.00;0.00;;;27.60;66.80;;;;;;5098153;28;20036;-88
2021/08/03 06:11:19;;;;;;;0.00;0.00;;;28.20;66.10;;;;;;5096916;28;20481;-89
2021/08/03 06:13:52;;;;;;;0.00;0.00;;;28.80;65.10;;;;;;5095439;28;20039;-87
2021/08/03 06:16:20;;;;;;;0.00;0.00;;;29.40;63.30;;;;;;5095533;28;20111;-89
2021/08/03 06:18:48;;;;;;;0.00;0.00;;;30.10;63.10;;;;;;5111442;28;20040;-86
2021/08/03 06:21:15;;;;;;;0.00;0.00;;;30.50;61.20;;;;;;5093602;28;20081;-87
2021/08/03 06:23:45;;;;;;;0.00;0.00;;;30.40;59.50;;;;;;5096424;28;20046;-89
2021/08/03 06:26:12;;;;;;;0.00;0.00;;;30.50;59.00;;;;;;5095704;28;20039;-88
2021/08/03 06:28:44;;;;;;;0.00;0.00;;;30.30;58.50;;;;;;5094017;28;20394;-89
2021/08/03 06:31:10;;;;;;;0.00;0.00;;;29.80;58.10;;;;;;5095895;28;20040;-89
2021/08/03 06:33:36;;;;;;;0.00;0.00;;;29.30;58.00;;;;;;5093510;28;20070;-89
2021/08/03 06:36:02;;;;;;;0.00;0.00;;;28.80;58.00;;;;;;5093767;28;20036;-89
2021/08/03 06:38:28;;;;;;;0.00;0.00;;;28.30;58.60;;;;;;5093834;28;20031;-88
2021/08/03 06:41:02;;;;;;;0.00;0.00;;;28.00;59.20;;;;;;5095103;28;20028;-88
2021/08/03 06:43:29;;;;;;;0.00;0.00;;;27.60;59.30;;;;;;5093011;28;20435;-89
2021/08/03 06:46:03;;;;;;;0.00;0.00;;;27.30;60.00;;;;;;5092126;28;20473;-89
2021/08/03 06:48:34;;;;;;;0.00;0.00;;;27.10;60.10;;;;;;5096922;28;20050;-89
2021/08/03 06:51:04;;;;;;;0.00;0.00;;;26.90;60.90;;;;;;5114215;28;20092;-89
2021/08/03 06:53:31;;;;;;;0.00;0.00;;;27.20;61.80;;;;;;5101536;28;20024;-89
2021/08/03 06:56:02;;;;;;;0.00;0.00;;;27.90;61.70;;;;;;5093766;28;20055;-89
2021/08/03 06:58:47;;;;;;;0.00;0.00;;;28.60;60.30;;;;;;5093073;28;20062;-88
2021/08/03 07:01:18;;;;;;;0.00;0.00;;;29.00;58.10;;;;;;5094067;28;20036;-88
2021/08/03 07:03:54;;;;;;;0.00;0.00;;;29.40;59.20;;;;;;5092257;28;20481;-89
2021/08/03 07:06:23;;;;;;;0.00;0.00;;;29.60;58.40;;;;;;5099940;28;20040;-89
2021/08/03 07:08:52;;;;;;;0.00;0.00;;;29.70;58.30;;;;;;5098623;28;20047;-88
2021/08/03 07:11:20;;;;;;;0.00;0.00;;;30.20;57.90;;;;;;5098162;28;20070;-86
2021/08/03 07:13:48;;;;;;;0.00;0.00;;;30.90;57.60;;;;;;5091677;28;20046;-88
2021/08/03 07:16:14;;;;;;;0.00;0.00;;;31.60;56.20;;;;;;5092442;28;20060;-86
2021/08/03 07:18:42;;;;;;;0.00;0.00;;;32.00;55.60;;;;;;5093336;28;20020;-85
2021/08/03 07:21:11;;;;;;;0.00;0.00;;;32.30;53.20;;;;;;5091797;28;20062;-88
2021/08/03 07:23:37;;;;;;;0.00;0.00;;;32.40;52.90;;;;;;5090446;28;20019;-87
2021/08/03 07:26:04;;;;;;;0.00;0.00;;;32.50;52.70;;;;;;5090341;28;20540;-86
2021/08/03 07:28:29;;;;;;;0.00;0.00;;;32.80;52.50;;;;;;5096887;28;20024;-88
2021/08/03 07:30:55;;;;;;;0.00;0.00;;;33.20;51.80;;;;;;5115246;28;20104;-88
2021/08/03 07:33:21;;;;;;;0.00;0.00;;;33.70;51.20;;;;;;5107434;28;20020;-87
2021/08/03 07:35:47;;;;;;;0.00;0.00;;;34.30;50.70;;;;;;5112649;28;20035;-87
2021/08/03 07:38:13;;;;;;;0.00;0.00;;;34.90;50.00;;;;;;5097689;28;20028;-87
2021/08/03 07:40:41;;;;;;;0.00;0.00;;;35.40;49.10;;;;;;5095963;28;20040;-86
2021/08/03 07:43:06;;;;;;;0.00;0.00;;;35.70;49.00;;;;;;5100468;28;20039;-87
2021/08/03 07:45:33;;;;;;;0.00;0.00;;;36.00;48.50;;;;;;5099630;28;20384;-87
2021/08/03 07:47:59;;;;;;;0.03;0.03;;;36.40;48.10;;;;;;5097306;28;20020;-87
2021/08/03 07:50:26;;;;;;;0.00;0.00;;;36.80;47.10;;;;;;5095586;28;20330;-87
2021/08/03 07:52:53;;;;;;;0.00;0.00;;;36.90;46.60;;;;;;5096497;28;20020;-87
2021/08/03 07:55:18;;;;;;;0.00;0.00;;;37.30;46.50;;;;;;5098127;28;20028;-86
2021/08/03 07:57:44;;;;;;;0.10;0.10;;;37.70;45.90;;;;;;5097492;28;20024;-87
2021/08/03 08:00:10;;;;;;;0.00;0.00;;;38.10;45.30;;;;;;5096716;28;20242;-87
2021/08/03 08:02:36;;;;;;;0.10;0.10;;;38.20;44.90;;;;;;5097126;28;20069;-88
2021/08/03 08:05:01;;;;;;;0.10;0.10;;;38.30;44.30;;;;;;5098674;28;20035;-88
2021/08/03 08:07:27;;;;;;;0.10;0.10;;;38.30;43.90;;;;;;5117465;28;20024;-86
2021/08/03 08:09:54;;;;;;;0.10;0.10;;;38.40;44.00;;;;;;5108593;28;20393;-88
2021/08/03 08:12:19;;;;;;;0.10;0.10;;;38.50;43.50;;;;;;5095029;28;20039;-87
2021/08/03 08:14:45;;;;;;;0.00;0.00;;;38.50;43.20;;;;;;5095300;28;20016;-88
2021/08/03 08:17:11;;;;;;;0.00;0.00;;;38.60;43.30;;;;;;5096878;28;20024;-88
2021/08/03 08:19:37;;;;;;;0.10;0.10;;;38.80;43.10;;;;;;5098112;28;20111;-87
2021/08/03 08:22:03;;;;;;;0.10;0.10;;;39.20;42.90;;;;;;5097818;28;20036;-88
2021/08/03 08:24:28;;;;;;;0.10;0.10;;;39.70;42.50;;;;;;5096434;28;20023;-87
2021/08/03 08:26:54;;;;;;;0.00;0.00;;;40.00;42.40;;;;;;5096387;28;20356;-88
2021/08/03 08:29:20;;;;;;;0.10;0.10;;;40.20;41.90;;;;;;5098907;28;20028;-88
2021/08/03 08:31:46;;;;;;;0.10;0.10;;;40.20;41.90;;;;;;5100648;28;20116;-88
2021/08/03 08:34:13;;;;;;;0.10;0.10;;;40.20;41.80;;;;;;5099168;28;20530;-88
2021/08/03 08:36:39;;;;;;;0.10;0.10;;;40.20;41.90;;;;;;5100908;28;20040;-88
2021/08/03 08:39:05;;;;;;;0.10;0.10;;;40.20;41.50;;;;;;5101021;28;20024;-88
2021/08/03 08:41:34;;;;;;;0.10;0.10;;;40.30;41.40;;;;;;5098552;28;20137;-91
2021/08/03 08:44:04;;;;;;;0.10;0.10;;;40.50;41.10;;;;;;5101550;28;20024;-88
2021/08/03 08:46:34;;;;;;;0.10;0.10;;;40.70;40.50;;;;;;5110533;28;20020;-88
2021/08/03 08:49:01;;;;;;;0.10;0.10;;;40.80;40.30;;;;;;5119698;28;20004;-87
2021/08/03 08:51:28;;;;;;;0.10;0.10;;;41.00;40.30;;;;;;5099350;28;20036;-89
2021/08/03 08:53:53;;;;;;;0.10;0.10;;;41.30;40.10;;;;;;5100497;28;20514;-88
2021/08/03 08:56:19;;;;;;;0.10;0.10;;;41.60;40.00;;;;;;5099989;28;20032;-88
2021/08/03 08:58:45;;;;;;;0.10;0.10;;;41.70;39.80;;;;;;5098784;28;20050;-88
2021/08/03 09:01:11;;;;;;;0.10;0.10;;;41.50;39.80;;;;;;5096457;28;20040;-87
2021/08/03 09:03:39;;;;;;;0.10;0.10;;;41.80;39.70;;;;;;5099987;28;20024;-90
2021/08/03 09:06:14;;;;;;;0.10;0.10;;;42.00;39.20;;;;;;5100061;28;20511;-90
2021/08/03 09:09:15;;;;;;;0.10;0.10;;;42.20;38.90;;;;;;5100653;28;20024;-91
2021/08/03 09:11:56;;;;;;;0.10;0.10;;;42.00;37.90;;;;;;5098668;28;20036;-91
2021/08/03 09:14:45;;;;;;;0.10;0.10;;;41.40;38.50;;;;;;5100706;28;20035;-90
2021/08/03 09:17:35;;;;;;;0.10;0.10;;;41.10;38.40;;;;;;5100737;28;20500;-91
2021/08/03 09:20:22;;;;;;;0.00;0.00;;;41.10;39.10;;;;;;5097517;28;20105;-91
2021/08/03 09:22:51;;;;;;;0.00;0.00;;;40.30;38.90;;;;;;5099429;28;20052;-91
2021/08/03 09:25:22;;;;;;;0.10;0.10;;;39.50;39.40;;;;;;5098032;28;20059;-91
2021/08/03 09:27:48;;;;;;;0.00;0.00;;;39.10;40.20;;;;;;5116881;28;20047;-90
2021/08/03 09:30:45;;;;;;;0.10;0.10;;;39.10;40.30;;;;;;5111582;28;20532;-93
2021/08/03 09:33:21;;;;;;;0.10;0.10;;;39.50;40.40;;;;;;5106669;22;20040;-91
2021/08/03 09:35:47;;;;;;;0.10;0.10;;;40.10;39.90;;;;;;5077842;28;20025;-92
2021/08/03 09:38:17;;;;;;;0.10;0.10;;;40.50;39.60;;;;;;5072475;28;20488;-89
2021/08/03 09:40:44;;;;;;;0.10;0.10;;;41.10;39.00;;;;;;5074351;28;20507;-92
2021/08/03 09:43:13;;;;;;;0.10;0.10;;;41.40;38.90;;;;;;5072998;28;20416;-91
2021/08/03 09:45:45;;;;;;;0.10;0.10;;;41.50;38.40;;;;;;5061175;28;20021;-89
2021/08/03 09:48:13;;;;;;;0.10;0.10;;;41.90;38.40;;;;;;5073515;28;20032;-91
2021/08/03 09:50:59;;;;;;;0.20;0.20;;;42.20;38.00;;;;;;5075086;28;20016;-92
2021/08/03 09:53:52;;;;;;;0.10;0.10;;;42.60;37.30;;;;;;5073194;28;20036;-91
2021/08/03 09:56:28;;;;;;;0.10;0.10;;;42.80;36.80;;;;;;5072807;28;20032;-92
2021/08/03 09:59:02;;;;;;;0.10;0.10;;;42.80;37.20;;;;;;5073873;28;20113;-89
2021/08/03 10:01:29;;;;;;;0.00;0.00;;;42.10;36.80;;;;;;5072201;28;20058;-92
2021/08/03 10:03:58;;;;;;;0.10;0.10;;;40.90;37.20;;;;;;5071864;28;20028;-90
2021/08/03 10:06:24;;;;;;;0.10;0.10;;;39.90;38.10;;;;;;5074096;28;20111;-89
2021/08/03 10:08:52;;;;;;;0.10;0.10;;;39.70;38.70;;;;;;5073790;28;20056;-90
2021/08/03 10:11:19;;;;;;;0.10;0.10;;;40.50;38.60;;;;;;5079819;28;20025;-92
2021/08/03 10:13:47;;;;;;;0.10;0.10;;;41.10;38.20;;;;;;5073934;28;20036;-90
2021/08/03 10:16:14;;;;;;;0.10;0.10;;;41.80;37.90;;;;;;5073761;28;20063;-92
2021/08/03 10:18:45;;;;;;;0.10;0.10;;;42.50;36.80;;;;;;5074567;28;20032;-91
2021/08/03 10:21:37;;;;;;;0.10;0.10;;;42.70;36.30;;;;;;5076018;28;20038;-90
2021/08/03 10:24:33;;;;;;;0.10;0.10;;;42.60;35.20;;;;;;5068936;28;20043;-92
2021/08/03 10:27:06;;;;;;;0.10;0.10;;;42.60;33.70;;;;;;5072658;28;20024;-90
2021/08/03 10:29:34;;;;;;;0.10;0.10;;;42.20;35.90;;;;;;5074069;28;20088;-89
2021/08/03 10:32:00;;;;;;;0.10;0.10;;;42.30;36.10;;;;;;5072846;28;20031;-92
2021/08/03 10:34:49;;;;;;;0.10;0.10;;;42.70;35.90;;;;;;5073545;28;20082;-91
2021/08/03 10:37:15;;;;;;;0.10;0.10;;;43.00;35.50;;;;;;5074173;28;20424;-92
2021/08/03 10:39:48;;;;;;;0.10;0.10;;;43.10;35.80;;;;;;5074357;28;20088;-91
2021/08/03 10:42:14;;;;;;;0.20;0.20;;;43.30;34.50;;;;;;5073367;28;20041;-92
2021/08/03 10:44:48;;;;;;;0.10;0.10;;;43.50;35.50;;;;;;5072584;28;20024;-93
2021/08/03 10:47:32;;;;;;;0.20;0.20;;;43.90;34.00;;;;;;5071321;28;20029;-91
2021/08/03 10:49:59;;;;;;;0.10;0.10;;;44.10;34.60;;;;;;5071387;28;20436;-92
2021/08/03 10:52:53;;;;;;;0.20;0.20;;;44.40;34.70;;;;;;5072881;28;20035;-91
2021/08/03 10:55:36;;;;;;;0.10;0.10;;;44.40;33.80;;;;;;5072768;28;20021;-93
2021/08/03 10:58:16;;;;;;;0.20;0.20;;;44.20;33.60;;;;;;5074567;28;20086;-92
2021/08/03 11:00:52;;;;;;;0.20;0.20;;;44.80;33.80;;;;;;5076801;28;20033;-92
2021/08/03 11:03:39;;;;;;;0.20;0.20;;;45.20;34.20;;;;;;5074611;28;20025;-93
2021/08/03 11:06:11;;;;;;;0.20;0.20;;;45.50;32.70;;;;;;5075365;28;20087;-92
2021/08/03 11:08:44;;;;;;;0.20;0.20;;;45.60;33.90;;;;;;5076019;28;20563;-93
2021/08/03 11:11:21;;;;;;;0.20;0.20;;;45.80;33.80;;;;;;5079398;28;20037;-93
2021/08/03 11:14:06;;;;;;;0.20;0.20;;;46.00;33.30;;;;;;5078239;28;20025;-93
2021/08/03 11:16:31;;;;;;;0.20;0.20;;;46.10;33.40;;;;;;5061578;28;20481;-92
2021/08/03 11:19:18;;;;;;;0.20;0.20;;;45.90;33.20;;;;;;5077719;28;20116;-91
2021/08/03 11:21:44;;;;;;;0.20;0.20;;;45.20;33.00;;;;;;5082414;28;20382;-92
2021/08/03 11:24:17;;;;;;;0.20;0.20;;;45.10;33.60;;;;;;5081002;28;20067;-92
2021/08/03 11:26:52;;;;;;;0.20;0.20;;;45.50;33.50;;;;;;5066232;28;20028;-93
2021/08/03 11:29:24;;;;;;;0.13;0.13;;;45.60;32.80;;;;;;5076706;28;20138;-92
2021/08/03 11:31:57;;;;;;;0.10;0.10;;;44.90;33.30;;;;;;5077233;28;20477;-91
2021/08/03 11:34:30;;;;;;;0.20;0.20;;;44.40;33.70;;;;;;5078912;28;20045;-92
2021/08/03 11:37:13;;;;;;;0.10;0.10;;;44.10;33.70;;;;;;5078882;28;20020;-92
2021/08/03 11:39:52;;;;;;;0.10;0.10;;;44.40;34.00;;;;;;5078716;28;20021;-92
2021/08/03 11:42:38;;;;;;;0.10;0.10;;;44.30;33.70;;;;;;5079026;28;20037;-92
2021/08/03 11:45:08;;;;;;;0.10;0.10;;;43.30;33.80;;;;;;5078633;28;20028;-92
2021/08/03 11:47:45;;;;;;;0.10;0.10;;;42.70;34.70;;;;;;5077514;28;20025;-93
2021/08/03 11:50:13;;;;;;;0.10;0.10;;;42.90;34.90;;;;;;5077242;28;20532;-92
2021/08/03 11:52:39;;;;;;;0.10;0.10;;;42.60;34.40;;;;;;5077662;28;20039;-91
2021/08/03 11:55:05;;;;;;;0.00;0.00;;;41.90;34.60;;;;;;5079745;28;20040;-92
2021/08/03 11:57:37;;;;;;;0.00;0.00;;;40.80;35.10;;;;;;5078666;28;20119;-91
2021/08/03 12:00:09;;;;;;;0.00;0.00;;;39.70;35.60;;;;;;5076486;28;20029;-92
2021/08/03 12:02:36;;;;;;;0.00;0.00;;;38.50;36.30;;;;;;5076172;28;20040;-92
2021/08/03 12:05:12;;;;;;;0.00;0.00;;;37.40;36.90;;;;;;5077096;28;20128;-91
2021/08/03 12:07:40;;;;;;;0.00;0.00;;;36.50;37.80;;;;;;5082831;28;20115;-90
2021/08/03 12:10:08;;;;;;;0.00;0.00;;;35.60;38.50;;;;;;5083170;28;20493;-90
2021/08/03 12:12:34;;;;;;;0.00;0.00;;;34.70;39.40;;;;;;5077175;28;20505;-91
2021/08/03 12:15:06;;;;;;;0.00;0.00;;;34.30;41.00;;;;;;5078398;28;20024;-92
2021/08/03 12:17:32;;;;;;;0.00;0.00;;;35.00;40.70;;;;;;5075669;28;20025;-92
2021/08/03 12:20:05;;;;;;;0.03;0.03;;;36.20;40.00;;;;;;5077614;28;20021;-91
2021/08/03 12:22:32;;;;;;;0.00;0.00;;;37.60;38.70;;;;;;5077849;28;20052;-93
2021/08/03 12:25:00;;;;;;;0.00;0.00;;;39.00;37.60;;;;;;5076300;28;20264;-93
2021/08/03 12:27:26;;;;;;;0.10;0.10;;;40.00;36.80;;;;;;5075744;28;20028;-92
2021/08/03 12:29:52;;;;;;;0.10;0.10;;;41.00;36.20;;;;;;5078246;28;20031;-92
2021/08/03 12:32:38;;;;;;;0.10;0.10;;;41.80;35.50;;;;;;5075746;28;20039;-92
2021/08/03 12:35:15;;;;;;;0.10;0.10;;;42.50;34.90;;;;;;5080815;28;20024;-91
2021/08/03 12:37:41;;;;;;;0.10;0.10;;;43.10;34.70;;;;;;5077855;28;20066;-91
2021/08/03 12:40:32;;;;;;;0.10;0.10;;;43.60;34.80;;;;;;5076826;28;20021;-92
2021/08/03 12:42:59;;;;;;;0.00;0.00;;;43.80;33.60;;;;;;5075711;28;20063;-91
2021/08/03 12:45:26;;;;;;;0.00;0.00;;;43.00;34.10;;;;;;5077238;28;20029;-93
2021/08/03 12:48:00;;;;;;;0.10;0.10;;;41.90;34.30;;;;;;5075309;28;20036;-92
2021/08/03 12:50:26;;;;;;;0.10;0.10;;;41.30;35.20;;;;;;5079019;28;20016;-92
2021/08/03 12:52:59;;;;;;;0.00;0.00;;;41.50;35.40;;;;;;5077062;28;20431;-91
2021/08/03 12:55:42;;;;;;;0.05;0.05;;;41.90;35.10;;;;;;5076122;28;20016;-91
2021/08/03 12:58:08;;;;;;;0.10;0.10;;;42.50;34.80;;;;;;5078709;28;20040;-91
2021/08/03 13:00:34;;;;;;;0.10;0.10;;;42.40;34.40;;;;;;5080464;28;20040;-91
2021/08/03 13:03:03;;;;;;;0.10;0.10;;;42.50;34.60;;;;;;5078123;28;20060;-91
2021/08/03 13:05:29;;;;;;;0.00;0.00;;;42.80;34.50;;;;;;5077495;28;20017;-91
2021/08/03 13:07:55;;;;;;;0.00;0.00;;;43.10;34.20;;;;;;5075076;28;20039;-92
2021/08/03 13:10:21;;;;;;;0.00;0.00;;;42.50;33.90;;;;;;5075915;28;20027;-92
2021/08/03 13:12:47;;;;;;;0.00;0.00;;;41.20;34.40;;;;;;5076003;28;20036;-92
2021/08/03 13:15:13;;;;;;;0.00;0.00;;;39.90;35.10;;;;;;5076546;28;20390;-91